Time;durP1;ratioP1;P1;durP2;ratioP2;P2;SDS_P1;SDS_P2;PMS_P1;PMS_P2;Temp;Humidity;BMP_temperature;BMP_pressure;BME280_temperature;BME280_humidity;BME280_pressure;Samples;Min_cycle;Max_cycle;Signal;HPM_P1;HPM_P2
2023/05/15 00:00:11;;;;;;;0.60;0.60;;;;;;;;;;5041757;28;20263;-84
2023/05/15 00:02:37;;;;;;;0.60;0.60;;;;;;;;;;5040948;28;20219;-85
2023/05/15 00:05:07;;;;;;;0.70;0.70;;;;;;;;;;5041216;28;20251;-85
2023/05/15 00:07:33;;;;;;;0.57;0.57;;;;;;;;;;5041347;28;20210;-85
2023/05/15 00:09:59;;;;;;;0.70;0.70;;;;;;;;;;5040878;28;20206;-85
2023/05/15 00:12:25;;;;;;;0.60;0.60;;;;;;;;;;5040239;28;20222;-85
2023/05/15 00:14:51;;;;;;;0.70;0.70;;;;;;;;;;5043594;28;20278;-85
2023/05/15 00:17:17;;;;;;;0.70;0.70;;;;;;;;;;5055187;28;20183;-84
2023/05/15 00:19:43;;;;;;;0.50;0.50;;;;;;;;;;5055688;28;20172;-85
2023/05/15 00:22:09;;;;;;;0.63;0.63;;;;;;;;;;5055272;28;20175;-86
2023/05/15 00:24:35;;;;;;;0.80;0.80;;;;;;;;;;5055320;28;20187;-84
2023/05/15 00:27:01;;;;;;;0.60;0.60;;;;;;;;;;5055048;28;20194;-84
2023/05/15 00:29:27;;;;;;;0.63;0.63;;;;;;;;;;5055498;28;20202;-84
2023/05/15 00:31:53;;;;;;;0.60;0.60;;;;;;;;;;5054957;28;20179;-87
2023/05/15 00:34:19;;;;;;;0.60;0.60;;;;;;;;;;5055449;28;20214;-84
2023/05/15 00:36:46;;;;;;;0.60;0.60;;;;;;;;;;5055516;28;20175;-85
2023/05/15 00:39:12;;;;;;;0.60;0.60;;;;;;;;;;5055493;28;20192;-83
2023/05/15 00:41:38;;;;;;;0.50;0.50;;;;;;;;;;5055675;28;20172;-84
2023/05/15 00:44:04;;;;;;;0.60;0.60;;;;;;;;;;5054138;28;20257;-82
2023/05/15 00:46:31;;;;;;;0.67;0.67;;;;;;;;;;5044179;28;20200;-84
2023/05/15 00:48:57;;;;;;;0.63;0.63;;;;;;;;;;5039099;28;20171;-82
2023/05/15 00:51:24;;;;;;;0.60;0.60;;;;;;;;;;5038412;28;20188;-84
2023/05/15 00:53:53;;;;;;;0.60;0.60;;;;;;;;;;5038042;28;20215;-84
2023/05/15 00:56:20;;;;;;;0.77;0.77;;;;;;;;;;5038583;28;20191;-83
2023/05/15 00:58:46;;;;;;;0.50;0.50;;;;;;;;;;5038543;28;20222;-84
2023/05/15 01:01:14;;;;;;;0.70;0.70;;;;;;;;;;5038768;28;20248;-84
2023/05/15 01:03:40;;;;;;;0.70;0.70;;;;;;;;;;5038441;28;20208;-84
2023/05/15 01:06:06;;;;;;;0.60;0.60;;;;;;;;;;5039249;28;20179;-84
2023/05/15 01:08:38;;;;;;;0.77;0.77;;;;;;;;;;5039318;28;20247;-83
2023/05/15 01:11:05;;;;;;;0.50;0.50;;;;;;;;;;5038977;28;20183;-84
2023/05/15 01:13:31;;;;;;;0.70;0.70;;;;;;;;;;5038226;28;20211;-85
2023/05/15 01:15:58;;;;;;;0.60;0.60;;;;;;;;;;5039531;28;20561;-85
2023/05/15 01:18:30;;;;;;;0.60;0.60;;;;;;;;;;5039036;28;20267;-85
2023/05/15 01:21:02;;;;;;;0.60;0.60;;;;;;;;;;5048055;28;20176;-84
2023/05/15 01:23:47;;;;;;;0.60;0.60;;;;;;;;;;5053998;28;20196;-83
2023/05/15 01:26:36;;;;;;;0.70;0.70;;;;;;;;;;5047474;28;20335;-83
2023/05/15 01:29:08;;;;;;;0.60;0.60;;;;;;;;;;5035201;28;20274;-83
2023/05/15 01:31:34;;;;;;;0.70;0.70;;;;;;;;;;5035580;28;20176;-84
2023/05/15 01:34:03;;;;;;;0.77;0.77;;;;;;;;;;5034511;28;20247;-83
2023/05/15 01:36:42;;;;;;;0.60;0.60;;;;;;;;;;5034796;28;20573;-83
2023/05/15 01:39:10;;;;;;;0.50;0.50;;;;;;;;;;5034998;28;20172;-83
2023/05/15 01:41:41;;;;;;;0.60;0.60;;;;;;;;;;5034815;28;20571;-84
2023/05/15 01:44:10;;;;;;;0.50;0.50;;;;;;;;;;5034317;28;20568;-82
2023/05/15 01:46:38;;;;;;;0.60;0.60;;;;;;;;;;5034978;28;20623;-82
2023/05/15 01:49:05;;;;;;;0.60;0.60;;;;;;;;;;5034895;28;20306;-83
2023/05/15 01:51:32;;;;;;;0.50;0.50;;;;;;;;;;5035108;28;20717;-83
2023/05/15 01:53:59;;;;;;;0.50;0.50;;;;;;;;;;5034705;28;20704;-82
2023/05/15 01:56:25;;;;;;;0.60;0.60;;;;;;;;;;5035324;28;20191;-83
2023/05/15 01:58:51;;;;;;;0.70;0.70;;;;;;;;;;5035212;28;20188;-83
2023/05/15 02:01:18;;;;;;;0.70;0.70;;;;;;;;;;5035013;28;20187;-83
2023/05/15 02:03:45;;;;;;;0.50;0.50;;;;;;;;;;5034224;28;20192;-83
2023/05/15 02:06:11;;;;;;;0.50;0.50;;;;;;;;;;5033431;28;20200;-82
2023/05/15 02:08:37;;;;;;;0.70;0.70;;;;;;;;;;5034116;28;20172;-83
2023/05/15 02:11:04;;;;;;;0.50;0.50;;;;;;;;;;5034197;28;20191;-83
2023/05/15 02:13:30;;;;;;;0.53;0.53;;;;;;;;;;5033653;28;20246;-83
2023/05/15 02:15:57;;;;;;;0.63;0.63;;;;;;;;;;5034081;28;20307;-82
2023/05/15 02:18:23;;;;;;;0.60;0.60;;;;;;;;;;5033843;28;20285;-82
2023/05/15 02:20:49;;;;;;;0.50;0.50;;;;;;;;;;5034521;28;20186;-82
2023/05/15 02:23:15;;;;;;;0.50;0.50;;;;;;;;;;5034238;28;20199;-83
2023/05/15 02:25:45;;;;;;;0.60;0.60;;;;;;;;;;5034163;28;20176;-83
2023/05/15 02:28:16;;;;;;;0.80;0.80;;;;;;;;;;5034463;28;20172;-82
2023/05/15 02:30:45;;;;;;;0.73;0.73;;;;;;;;;;5034579;28;20179;-82
2023/05/15 02:33:30;;;;;;;0.50;0.50;;;;;;;;;;5034029;28;20303;-82
2023/05/15 02:35:58;;;;;;;0.50;0.50;;;;;;;;;;5034251;28;20196;-82
2023/05/15 02:38:53;;;;;;;0.70;0.70;;;;;;;;;;5033800;28;20191;-83
2023/05/15 02:41:20;;;;;;;0.40;0.40;;;;;;;;;;5017649;28;20184;-83
2023/05/15 02:43:48;;;;;;;0.50;0.50;;;;;;;;;;5034653;28;20219;-83
2023/05/15 02:46:14;;;;;;;0.60;0.60;;;;;;;;;;5034596;28;20262;-83
2023/05/15 02:48:41;;;;;;;0.50;0.50;;;;;;;;;;5034866;28;20179;-82
2023/05/15 02:51:07;;;;;;;0.50;0.50;;;;;;;;;;5035391;28;20267;-82
2023/05/15 02:53:33;;;;;;;0.60;0.60;;;;;;;;;;5034399;28;20262;-82
2023/05/15 02:56:01;;;;;;;0.70;0.70;;;;;;;;;;5035991;28;20205;-83
2023/05/15 02:58:27;;;;;;;0.60;0.60;;;;;;;;;;5033547;28;20717;-82
2023/05/15 03:00:53;;;;;;;0.60;0.60;;;;;;;;;;5035479;28;20171;-82
2023/05/15 03:03:19;;;;;;;0.60;0.60;;;;;;;;;;5034764;28;20199;-82
2023/05/15 03:05:45;;;;;;;0.70;0.70;;;;;;;;;;5034961;28;20184;-82
2023/05/15 03:08:11;;;;;;;0.60;0.60;;;;;;;;;;5035421;28;20184;-81
2023/05/15 03:10:37;;;;;;;0.50;0.50;;;;;;;;;;5035506;28;20283;-82
2023/05/15 03:13:03;;;;;;;0.70;0.70;;;;;;;;;;5035241;28;20744;-82
2023/05/15 03:15:28;;;;;;;0.70;0.70;;;;;;;;;;5035694;28;20306;-83
2023/05/15 03:17:54;;;;;;;0.60;0.60;;;;;;;;;;5035561;28;20307;-83
2023/05/15 03:20:20;;;;;;;0.67;0.67;;;;;;;;;;5038169;28;20251;-82
2023/05/15 03:22:46;;;;;;;0.63;0.63;;;;;;;;;;5039217;28;20225;-82
2023/05/15 03:25:12;;;;;;;0.60;0.60;;;;;;;;;;5038009;28;20183;-82
2023/05/15 03:27:38;;;;;;;0.50;0.50;;;;;;;;;;5038849;28;20175;-82
2023/05/15 03:30:05;;;;;;;0.60;0.60;;;;;;;;;;5039769;28;20535;-82
2023/05/15 03:32:31;;;;;;;0.70;0.70;;;;;;;;;;5038206;28;20222;-82
2023/05/15 03:34:57;;;;;;;0.60;0.60;;;;;;;;;;5039812;28;20215;-82
2023/05/15 03:37:23;;;;;;;0.60;0.60;;;;;;;;;;5038777;28;20651;-83
2023/05/15 03:39:49;;;;;;;0.60;0.60;;;;;;;;;;5038139;28;20262;-81
2023/05/15 03:42:21;;;;;;;0.60;0.60;;;;;;;;;;5037916;28;20235;-82
2023/05/15 03:44:47;;;;;;;0.60;0.60;;;;;;;;;;5037779;28;20188;-82
2023/05/15 03:47:13;;;;;;;0.70;0.70;;;;;;;;;;5038767;28;20247;-82
2023/05/15 03:49:39;;;;;;;0.63;0.63;;;;;;;;;;5040212;28;20218;-82
2023/05/15 03:52:05;;;;;;;0.60;0.60;;;;;;;;;;5040031;28;20310;-82
2023/05/15 03:54:31;;;;;;;0.60;0.60;;;;;;;;;;5040903;28;20215;-83
2023/05/15 03:56:57;;;;;;;0.57;0.57;;;;;;;;;;5042170;28;20195;-82
2023/05/15 03:59:23;;;;;;;0.50;0.50;;;;;;;;;;5042836;28;20175;-83
2023/05/15 04:01:49;;;;;;;0.70;0.70;;;;;;;;;;5043390;28;20262;-82
2023/05/15 04:04:15;;;;;;;0.60;0.60;;;;;;;;;;5041934;28;20214;-82
2023/05/15 04:06:41;;;;;;;0.50;0.50;;;;;;;;;;5042563;28;20191;-82
2023/05/15 04:09:07;;;;;;;0.60;0.60;;;;;;;;;;5042910;28;20175;-83
2023/05/15 04:11:33;;;;;;;0.50;0.50;;;;;;;;;;5045994;28;20278;-84
2023/05/15 04:13:59;;;;;;;0.57;0.57;;;;;;;;;;5043558;28;20215;-83
2023/05/15 04:16:25;;;;;;;0.70;0.70;;;;;;;;;;5043111;28;20245;-83
2023/05/15 04:18:51;;;;;;;0.60;0.60;;;;;;;;;;5032789;28;20655;-83
2023/05/15 04:21:18;;;;;;;0.60;0.60;;;;;;;;;;5034297;28;20176;-82
2023/05/15 04:23:44;;;;;;;0.70;0.70;;;;;;;;;;5028711;28;20250;-83
2023/05/15 04:26:10;;;;;;;0.50;0.50;;;;;;;;;;5031157;28;20180;-83
2023/05/15 04:28:36;;;;;;;0.60;0.60;;;;;;;;;;5043123;28;20168;-82
2023/05/15 04:31:02;;;;;;;0.60;0.60;;;;;;;;;;5043399;28;20182;-83
2023/05/15 04:33:28;;;;;;;0.60;0.60;;;;;;;;;;5042862;28;20215;-82
2023/05/15 04:35:54;;;;;;;0.60;0.60;;;;;;;;;;5044924;28;20220;-84
2023/05/15 04:38:20;;;;;;;0.40;0.40;;;;;;;;;;5043580;28;20196;-83
2023/05/15 04:40:46;;;;;;;0.60;0.60;;;;;;;;;;5041950;28;20186;-83
2023/05/15 04:43:12;;;;;;;0.40;0.40;;;;;;;;;;5041634;28;20207;-83
2023/05/15 04:45:38;;;;;;;0.40;0.40;;;;;;;;;;5041716;28;20176;-82
2023/05/15 04:48:05;;;;;;;0.40;0.40;;;;;;;;;;5042076;28;20247;-83
2023/05/15 04:50:31;;;;;;;0.43;0.43;;;;;;;;;;5042775;28;20236;-83
2023/05/15 04:52:57;;;;;;;0.40;0.40;;;;;;;;;;5042142;28;20192;-84
2023/05/15 04:55:23;;;;;;;0.40;0.40;;;;;;;;;;5042720;28;20243;-84
2023/05/15 04:57:50;;;;;;;0.40;0.40;;;;;;;;;;5042228;28;20179;-83
2023/05/15 05:00:16;;;;;;;0.50;0.50;;;;;;;;;;5042273;28;20549;-84
2023/05/15 05:02:42;;;;;;;0.40;0.40;;;;;;;;;;5041946;28;20200;-83
2023/05/15 05:05:09;;;;;;;0.40;0.40;;;;;;;;;;5042689;28;20179;-83
2023/05/15 05:07:35;;;;;;;0.43;0.43;;;;;;;;;;5045444;28;20188;-83
2023/05/15 05:10:01;;;;;;;0.40;0.40;;;;;;;;;;5043361;28;20172;-84
2023/05/15 05:12:27;;;;;;;0.50;0.50;;;;;;;;;;5050858;28;20203;-82
2023/05/15 05:14:55;;;;;;;0.40;0.40;;;;;;;;;;5054461;28;20256;-82
2023/05/15 05:17:21;;;;;;;0.53;0.53;;;;;;;;;;5045893;28;20176;-82
2023/05/15 05:19:47;;;;;;;0.43;0.43;;;;;;;;;;5039328;28;20171;-83
2023/05/15 05:22:13;;;;;;;0.47;0.47;;;;;;;;;;5037313;28;20199;-83
2023/05/15 05:24:39;;;;;;;0.50;0.50;;;;;;;;;;5037942;28;20186;-81
2023/05/15 05:27:05;;;;;;;0.47;0.47;;;;;;;;;;5037582;28;20176;-82
2023/05/15 05:29:31;;;;;;;0.60;0.60;;;;;;;;;;5036965;28;20176;-82
2023/05/15 05:31:57;;;;;;;0.57;0.57;;;;;;;;;;5037224;28;20183;-82
2023/05/15 05:34:23;;;;;;;0.53;0.53;;;;;;;;;;5039254;28;20675;-83
2023/05/15 05:36:50;;;;;;;0.40;0.40;;;;;;;;;;5042665;28;20191;-84
2023/05/15 05:39:17;;;;;;;0.40;0.40;;;;;;;;;;5040746;28;20204;-84
2023/05/15 05:41:43;;;;;;;0.50;0.50;;;;;;;;;;5041408;28;20191;-83
2023/05/15 05:44:09;;;;;;;0.43;0.43;;;;;;;;;;5042882;28;20211;-83
2023/05/15 05:46:35;;;;;;;0.40;0.40;;;;;;;;;;5042792;28;20694;-83
2023/05/15 05:49:01;;;;;;;0.40;0.40;;;;;;;;;;5043624;28;20186;-84
2023/05/15 05:51:27;;;;;;;0.50;0.50;;;;;;;;;;5044012;28;20553;-84
2023/05/15 05:53:53;;;;;;;0.47;0.47;;;;;;;;;;5042658;28;20187;-85
2023/05/15 05:56:20;;;;;;;0.43;0.43;;;;;;;;;;5043806;28;20175;-84
2023/05/15 05:58:46;;;;;;;0.50;0.50;;;;;;;;;;5044175;28;20179;-83
2023/05/15 06:01:12;;;;;;;0.40;0.40;;;;;;;;;;5041505;28;20180;-84
2023/05/15 06:03:38;;;;;;;0.40;0.40;;;;;;;;;;5039235;28;20294;-84
2023/05/15 06:06:05;;;;;;;0.40;0.40;;;;;;;;;;5039902;28;20540;-82
2023/05/15 06:08:31;;;;;;;0.40;0.40;;;;;;;;;;5040994;28;20214;-84
2023/05/15 06:10:57;;;;;;;0.40;0.40;;;;;;;;;;5041990;28;20230;-83
2023/05/15 06:13:23;;;;;;;0.40;0.40;;;;;;;;;;5042525;28;20195;-84
2023/05/15 06:15:50;;;;;;;0.30;0.30;;;;;;;;;;5039623;28;20215;-84
2023/05/15 06:18:16;;;;;;;0.40;0.40;;;;;;;;;;5028577;28;20219;-84
2023/05/15 06:20:42;;;;;;;0.40;0.40;;;;;;;;;;5035249;28;20619;-85
2023/05/15 06:23:08;;;;;;;0.30;0.30;;;;;;;;;;5034746;28;20285;-85
2023/05/15 06:25:34;;;;;;;0.30;0.30;;;;;;;;;;5033155;28;20184;-83
2023/05/15 06:28:00;;;;;;;0.30;0.30;;;;;;;;;;5038819;28;20210;-84
2023/05/15 06:30:26;;;;;;;0.40;0.40;;;;;;;;;;5040356;28;20263;-83
2023/05/15 06:32:53;;;;;;;0.40;0.40;;;;;;;;;;5037691;28;20752;-86
2023/05/15 06:35:19;;;;;;;0.40;0.40;;;;;;;;;;5035356;28;20219;-84
2023/05/15 06:37:49;;;;;;;0.50;0.50;;;;;;;;;;5038256;28;20252;-84
2023/05/15 06:40:15;;;;;;;0.60;0.60;;;;;;;;;;5033741;28;20223;-82
2023/05/15 06:42:41;;;;;;;0.50;0.50;;;;;;;;;;5036786;28;20214;-84
2023/05/15 06:45:08;;;;;;;0.50;0.50;;;;;;;;;;5033558;28;20180;-82
2023/05/15 06:47:34;;;;;;;0.40;0.40;;;;;;;;;;5031939;28;20240;-84
2023/05/15 06:50:00;;;;;;;0.40;0.40;;;;;;;;;;5034111;28;20180;-84
2023/05/15 06:52:26;;;;;;;0.50;0.50;;;;;;;;;;5042022;28;20200;-83
2023/05/15 06:54:52;;;;;;;0.40;0.40;;;;;;;;;;5047494;28;20234;-84
2023/05/15 06:57:18;;;;;;;0.40;0.40;;;;;;;;;;5048748;28;20175;-84
2023/05/15 06:59:45;;;;;;;0.40;0.40;;;;;;;;;;5046366;28;20167;-84
2023/05/15 07:02:11;;;;;;;0.30;0.30;;;;;;;;;;5047464;28;20191;-84
2023/05/15 07:04:37;;;;;;;0.50;0.50;;;;;;;;;;5049043;28;20588;-84
2023/05/15 07:07:03;;;;;;;0.60;0.60;;;;;;;;;;5048408;28;20253;-82
2023/05/15 07:09:29;;;;;;;0.30;0.30;;;;;;;;;;5048751;28;20267;-84
2023/05/15 07:11:55;;;;;;;0.43;0.43;;;;;;;;;;5047436;28;20187;-84
2023/05/15 07:14:21;;;;;;;0.40;0.40;;;;;;;;;;5047995;28;20207;-83
2023/05/15 07:16:47;;;;;;;0.40;0.40;;;;;;;;;;5047686;28;20180;-84
2023/05/15 07:19:17;;;;;;;0.40;0.40;;;;;;;;;;5049411;28;20179;-83
2023/05/15 07:21:43;;;;;;;0.50;0.50;;;;;;;;;;5049777;28;20187;-83
2023/05/15 07:24:09;;;;;;;0.40;0.40;;;;;;;;;;5045528;28;20261;-83
2023/05/15 07:26:35;;;;;;;0.40;0.40;;;;;;;;;;5046353;28;20279;-83
2023/05/15 07:29:02;;;;;;;0.40;0.40;;;;;;;;;;5046614;28;20200;-84
2023/05/15 07:31:30;;;;;;;0.40;0.40;;;;;;;;;;5045734;28;20184;-84
2023/05/15 07:33:56;;;;;;;0.30;0.30;;;;;;;;;;5045371;28;20241;-84
2023/05/15 07:36:22;;;;;;;0.30;0.30;;;;;;;;;;5045786;28;20192;-84
2023/05/15 07:38:48;;;;;;;0.40;0.40;;;;;;;;;;5046107;28;20183;-83
2023/05/15 07:41:14;;;;;;;0.33;0.33;;;;;;;;;;5045936;28;20249;-83
2023/05/15 07:43:40;;;;;;;0.40;0.40;;;;;;;;;;5045493;28;20196;-84
2023/05/15 07:46:06;;;;;;;0.40;0.40;;;;;;;;;;5047444;28;20176;-82
2023/05/15 07:48:32;;;;;;;0.50;0.50;;;;;;;;;;5045188;28;20176;-84
2023/05/15 07:50:58;;;;;;;0.47;0.47;;;;;;;;;;5045845;28;20179;-85
2023/05/15 07:53:24;;;;;;;0.40;0.40;;;;;;;;;;5045705;28;20646;-83
2023/05/15 07:55:50;;;;;;;0.33;0.33;;;;;;;;;;5046977;28;20232;-83
2023/05/15 07:58:16;;;;;;;0.37;0.37;;;;;;;;;;5046853;28;20187;-84
2023/05/15 08:00:42;;;;;;;0.47;0.47;;;;;;;;;;5045741;28;20191;-84
2023/05/15 08:03:10;;;;;;;0.40;0.40;;;;;;;;;;5049240;28;20192;-83
2023/05/15 08:05:36;;;;;;;0.40;0.40;;;;;;;;;;5056326;28;20176;-83
2023/05/15 08:08:02;;;;;;;0.47;0.47;;;;;;;;;;5051824;28;20191;-84
2023/05/15 08:10:28;;;;;;;0.30;0.30;;;;;;;;;;5048988;28;20175;-84
2023/05/15 08:12:55;;;;;;;0.30;0.30;;;;;;;;;;5049821;28;20200;-84
2023/05/15 08:15:21;;;;;;;0.40;0.40;;;;;;;;;;5050250;28;20235;-84
2023/05/15 08:17:47;;;;;;;0.40;0.40;;;;;;;;;;5050388;28;20244;-84
2023/05/15 08:20:13;;;;;;;0.27;0.27;;;;;;;;;;5050251;28;20670;-84
2023/05/15 08:22:39;;;;;;;0.60;0.60;;;;;;;;;;5049155;28;20211;-85
2023/05/15 08:25:05;;;;;;;0.37;0.37;;;;;;;;;;5046878;28;20177;-84
2023/05/15 08:27:32;;;;;;;0.30;0.30;;;;;;;;;;5029773;28;20227;-84
2023/05/15 08:29:58;;;;;;;0.40;0.40;;;;;;;;;;5030040;28;20200;-85
2023/05/15 08:32:24;;;;;;;0.30;0.30;;;;;;;;;;5029315;28;20196;-83
2023/05/15 08:34:50;;;;;;;0.50;0.50;;;;;;;;;;5029670;28;20207;-85
2023/05/15 08:37:16;;;;;;;0.40;0.40;;;;;;;;;;5029440;28;20177;-85
2023/05/15 08:39:42;;;;;;;0.40;0.40;;;;;;;;;;5031224;28;20214;-83
2023/05/15 08:42:14;;;;;;;0.40;0.40;;;;;;;;;;5046322;28;20563;-84
2023/05/15 08:44:40;;;;;;;0.40;0.40;;;;;;;;;;5049384;28;20183;-85
2023/05/15 08:47:06;;;;;;;0.50;0.50;;;;;;;;;;5065122;28;20176;-85
2023/05/15 08:49:32;;;;;;;0.57;0.57;;;;;;;;;;5064883;28;20186;-84
2023/05/15 08:51:59;;;;;;;0.47;0.47;;;;;;;;;;5046649;28;20172;-85
2023/05/15 08:54:25;;;;;;;0.50;0.50;;;;;;;;;;5058010;28;20225;-84
2023/05/15 08:56:51;;;;;;;0.40;0.40;;;;;;;;;;5053773;28;20203;-85
2023/05/15 08:59:17;;;;;;;0.40;0.40;;;;;;;;;;5064984;28;20237;-83
2023/05/15 09:01:43;;;;;;;0.40;0.40;;;;;;;;;;5054325;28;20175;-83
2023/05/15 09:04:09;;;;;;;0.40;0.40;;;;;;;;;;5057508;28;20612;-84
2023/05/15 09:06:35;;;;;;;0.40;0.40;;;;;;;;;;5053535;28;20247;-83
2023/05/15 09:09:04;;;;;;;0.40;0.40;;;;;;;;;;5066074;28;20239;-83
2023/05/15 09:11:31;;;;;;;0.50;0.50;;;;;;;;;;5061272;28;20232;-83
2023/05/15 09:13:58;;;;;;;0.40;0.40;;;;;;;;;;5066087;28;20192;-83
2023/05/15 09:16:24;;;;;;;0.60;0.60;;;;;;;;;;5045559;28;20202;-84
2023/05/15 09:18:51;;;;;;;0.50;0.50;;;;;;;;;;5043442;28;20175;-84
2023/05/15 09:21:26;;;;;;;0.50;0.50;;;;;;;;;;5059501;28;20179;-84
2023/05/15 09:23:53;;;;;;;0.40;0.40;;;;;;;;;;5047516;28;20210;-84
2023/05/15 09:26:19;;;;;;;0.50;0.50;;;;;;;;;;5054043;28;20183;-84
2023/05/15 09:28:45;;;;;;;0.40;0.40;;;;;;;;;;5058352;28;20190;-84
2023/05/15 09:31:11;;;;;;;0.50;0.50;;;;;;;;;;5049078;28;20175;-83
2023/05/15 09:33:38;;;;;;;0.40;0.40;;;;;;;;;;5061538;28;20202;-84
2023/05/15 09:36:05;;;;;;;0.40;0.40;;;;;;;;;;5054922;28;20214;-84
2023/05/15 09:38:32;;;;;;;0.40;0.40;;;;;;;;;;5054984;28;20184;-84
2023/05/15 09:41:05;;;;;;;0.50;0.50;;;;;;;;;;5045290;28;20555;-83
2023/05/15 09:43:38;;;;;;;0.50;0.50;;;;;;;;;;5061081;28;20674;-83
2023/05/15 09:46:05;;;;;;;0.50;0.50;;;;;;;;;;5054942;28;20203;-84
2023/05/15 09:48:31;;;;;;;0.40;0.40;;;;;;;;;;5042162;28;20204;-84
2023/05/15 09:50:57;;;;;;;0.50;0.50;;;;;;;;;;5058312;28;20195;-85
2023/05/15 09:53:24;;;;;;;0.50;0.50;;;;;;;;;;5029491;28;20256;-84
2023/05/15 09:55:51;;;;;;;0.50;0.50;;;;;;;;;;5023901;28;20221;-83
2023/05/15 09:58:18;;;;;;;0.30;0.30;;;;;;;;;;5024011;28;20326;-84
2023/05/15 10:00:45;;;;;;;0.40;0.40;;;;;;;;;;5023699;28;20177;-86
2023/05/15 10:03:11;;;;;;;0.57;0.57;;;;;;;;;;5023669;28;20692;-84
2023/05/15 10:05:38;;;;;;;0.40;0.40;;;;;;;;;;5022790;28;20211;-84
2023/05/15 10:08:04;;;;;;;0.40;0.40;;;;;;;;;;5024444;28;20219;-84
2023/05/15 10:10:31;;;;;;;0.40;0.40;;;;;;;;;;5026041;28;20175;-85
2023/05/15 10:13:00;;;;;;;0.40;0.40;;;;;;;;;;5023325;28;20247;-84
2023/05/15 10:15:26;;;;;;;0.40;0.40;;;;;;;;;;5022810;28;20223;-83
2023/05/15 10:17:53;;;;;;;0.30;0.30;;;;;;;;;;5024450;28;20231;-85
2023/05/15 10:20:20;;;;;;;0.40;0.40;;;;;;;;;;5024228;28;20180;-85
2023/05/15 10:22:49;;;;;;;0.43;0.43;;;;;;;;;;5022351;28;20200;-83
2023/05/15 10:25:27;;;;;;;0.40;0.40;;;;;;;;;;5024088;28;20172;-83
2023/05/15 10:27:54;;;;;;;0.50;0.50;;;;;;;;;;5022487;28;20238;-83
2023/05/15 10:30:21;;;;;;;0.30;0.30;;;;;;;;;;5021077;28;20189;-84
2023/05/15 10:32:48;;;;;;;0.50;0.50;;;;;;;;;;5020105;28;20200;-83
2023/05/15 10:35:15;;;;;;;0.37;0.37;;;;;;;;;;5023109;28;20220;-83
2023/05/15 10:37:41;;;;;;;0.30;0.30;;;;;;;;;;5020367;28;20176;-83
2023/05/15 10:40:10;;;;;;;0.47;0.47;;;;;;;;;;5020968;28;20180;-82
2023/05/15 10:42:41;;;;;;;0.43;0.43;;;;;;;;;;5022071;28;20196;-83
2023/05/15 10:45:07;;;;;;;0.40;0.40;;;;;;;;;;5020328;28;20440;-83
2023/05/15 10:47:34;;;;;;;0.40;0.40;;;;;;;;;;5019394;28;20276;-84
2023/05/15 10:50:00;;;;;;;0.40;0.40;;;;;;;;;;5021678;28;20177;-84
2023/05/15 10:52:27;;;;;;;0.30;0.30;;;;;;;;;;5022049;28;20659;-83
2023/05/15 10:54:53;;;;;;;0.30;0.30;;;;;;;;;;5018924;28;20228;-84
2023/05/15 10:57:22;;;;;;;0.40;0.40;;;;;;;;;;5018757;28;20180;-84
2023/05/15 10:59:48;;;;;;;0.30;0.30;;;;;;;;;;5019246;28;20176;-84
2023/05/15 11:02:20;;;;;;;0.40;0.40;;;;;;;;;;5018531;28;20266;-83
2023/05/15 11:04:47;;;;;;;0.50;0.50;;;;;;;;;;5020449;28;20196;-83
2023/05/15 11:07:14;;;;;;;0.40;0.40;;;;;;;;;;5020957;28;20262;-85
2023/05/15 11:09:40;;;;;;;0.40;0.40;;;;;;;;;;5018753;28;20204;-85
2023/05/15 11:12:07;;;;;;;0.40;0.40;;;;;;;;;;5017887;28;20185;-84
2023/05/15 11:14:35;;;;;;;0.30;0.30;;;;;;;;;;5018817;28;20208;-83
2023/05/15 11:17:03;;;;;;;0.27;0.27;;;;;;;;;;5017992;28;20215;-84
2023/05/15 11:19:32;;;;;;;0.40;0.40;;;;;;;;;;5018057;28;20223;-84
2023/05/15 11:21:58;;;;;;;0.40;0.40;;;;;;;;;;5017757;28;20175;-85
2023/05/15 11:24:31;;;;;;;0.40;0.40;;;;;;;;;;5023695;28;20267;-84
2023/05/15 11:27:01;;;;;;;0.50;0.50;;;;;;;;;;5025442;28;20177;-84
2023/05/15 11:29:27;;;;;;;0.40;0.40;;;;;;;;;;5026456;28;20520;-85
2023/05/15 11:31:53;;;;;;;0.30;0.30;;;;;;;;;;5028763;28;20181;-86
2023/05/15 11:34:34;;;;;;;0.50;0.50;;;;;;;;;;5026682;28;20377;-84
2023/05/15 11:37:01;;;;;;;0.40;0.40;;;;;;;;;;5023442;28;20191;-83
2023/05/15 11:39:27;;;;;;;0.50;0.50;;;;;;;;;;5019706;28;20223;-84
2023/05/15 11:41:54;;;;;;;0.40;0.40;;;;;;;;;;5026452;28;20185;-83
2023/05/15 11:44:21;;;;;;;0.40;0.40;;;;;;;;;;5028712;28;20224;-85
2023/05/15 11:46:48;;;;;;;0.30;0.30;;;;;;;;;;5027722;28;20644;-85
2023/05/15 11:49:14;;;;;;;0.40;0.40;;;;;;;;;;5027938;28;20582;-84
2023/05/15 11:51:42;;;;;;;0.30;0.30;;;;;;;;;;5028700;28;20188;-85
2023/05/15 11:54:10;;;;;;;0.50;0.50;;;;;;;;;;5028610;28;20227;-84
2023/05/15 11:56:42;;;;;;;0.30;0.30;;;;;;;;;;5028104;28;20185;-84
2023/05/15 11:59:09;;;;;;;0.40;0.40;;;;;;;;;;5020676;28;20184;-84
2023/05/15 12:01:39;;;;;;;0.40;0.40;;;;;;;;;;5026559;28;20168;-85
2023/05/15 12:04:12;;;;;;;0.40;0.40;;;;;;;;;;5037493;28;20195;-84
2023/05/15 12:06:38;;;;;;;0.40;0.40;;;;;;;;;;5039606;28;20199;-86
2023/05/15 12:09:04;;;;;;;0.40;0.40;;;;;;;;;;5041378;28;20196;-86
2023/05/15 12:11:31;;;;;;;0.33;0.33;;;;;;;;;;5043309;28;20658;-84
2023/05/15 12:13:57;;;;;;;0.37;0.37;;;;;;;;;;5040600;28;20679;-85
2023/05/15 12:16:25;;;;;;;0.43;0.43;;;;;;;;;;5041426;28;20183;-86
2023/05/15 12:18:51;;;;;;;0.40;0.40;;;;;;;;;;5038996;28;20646;-84
2023/05/15 12:21:17;;;;;;;0.40;0.40;;;;;;;;;;5033066;28;20326;-86
2023/05/15 12:23:49;;;;;;;0.40;0.40;;;;;;;;;;5029611;28;20595;-87
2023/05/15 12:26:15;;;;;;;0.40;0.40;;;;;;;;;;5034565;28;20172;-86
2023/05/15 12:28:41;;;;;;;0.30;0.30;;;;;;;;;;5038713;28;20753;-86
2023/05/15 12:31:09;;;;;;;0.40;0.40;;;;;;;;;;5037672;28;20183;-86
2023/05/15 12:33:35;;;;;;;0.40;0.40;;;;;;;;;;5037908;28;20246;-86
2023/05/15 12:36:01;;;;;;;0.40;0.40;;;;;;;;;;5044623;28;20212;-84
2023/05/15 12:38:27;;;;;;;0.37;0.37;;;;;;;;;;5038483;28;20172;-85
2023/05/15 12:40:54;;;;;;;0.30;0.30;;;;;;;;;;5048661;28;20179;-86
2023/05/15 12:43:23;;;;;;;0.43;0.43;;;;;;;;;;5043885;28;20667;-86
2023/05/15 12:45:51;;;;;;;0.37;0.37;;;;;;;;;;5057133;28;20175;-84
2023/05/15 12:48:17;;;;;;;0.40;0.40;;;;;;;;;;5062316;28;20172;-85
2023/05/15 12:50:44;;;;;;;0.50;0.50;;;;;;;;;;5060785;28;20206;-85
2023/05/15 12:53:12;;;;;;;0.40;0.40;;;;;;;;;;5047156;28;20200;-85
2023/05/15 12:55:39;;;;;;;0.40;0.40;;;;;;;;;;5040141;28;20361;-86
2023/05/15 12:58:06;;;;;;;0.47;0.47;;;;;;;;;;5047199;28;20184;-87
2023/05/15 13:00:33;;;;;;;0.23;0.23;;;;;;;;;;5035222;28;20195;-86
2023/05/15 13:03:00;;;;;;;0.40;0.40;;;;;;;;;;5044768;28;20191;-83
2023/05/15 13:05:26;;;;;;;0.40;0.40;;;;;;;;;;5057801;28;20168;-83
2023/05/15 13:07:53;;;;;;;0.30;0.30;;;;;;;;;;5043602;28;20247;-83
2023/05/15 13:10:22;;;;;;;0.40;0.40;;;;;;;;;;5042498;28;20215;-84
2023/05/15 13:12:49;;;;;;;0.30;0.30;;;;;;;;;;5042399;28;20673;-84
2023/05/15 13:15:28;;;;;;;0.30;0.30;;;;;;;;;;5043289;28;20238;-84
2023/05/15 13:17:58;;;;;;;0.20;0.20;;;;;;;;;;5038509;28;20524;-84
2023/05/15 13:20:24;;;;;;;0.40;0.40;;;;;;;;;;5051747;28;20251;-83
2023/05/15 13:22:50;;;;;;;0.37;0.37;;;;;;;;;;5056018;28;20191;-81
2023/05/15 13:25:17;;;;;;;0.30;0.30;;;;;;;;;;5043778;28;20203;-83
2023/05/15 13:27:43;;;;;;;0.30;0.30;;;;;;;;;;5056539;28;20180;-82
2023/05/15 13:30:10;;;;;;;0.40;0.40;;;;;;;;;;5055535;28;20175;-84
2023/05/15 13:32:35;;;;;;;0.40;0.40;;;;;;;;;;5055133;28;20205;-83
2023/05/15 13:35:01;;;;;;;0.40;0.40;;;;;;;;;;5056166;28;20227;-84
2023/05/15 13:37:27;;;;;;;0.40;0.40;;;;;;;;;;5056827;28;20180;-83
2023/05/15 13:39:53;;;;;;;0.43;0.43;;;;;;;;;;5045742;28;20188;-84
2023/05/15 13:42:19;;;;;;;0.30;0.30;;;;;;;;;;5054147;28;20251;-83
2023/05/15 13:44:45;;;;;;;0.40;0.40;;;;;;;;;;5045564;28;20180;-85
2023/05/15 13:47:11;;;;;;;0.40;0.40;;;;;;;;;;5049896;28;20176;-84
2023/05/15 13:49:37;;;;;;;0.30;0.30;;;;;;;;;;5048922;28;20172;-83
2023/05/15 13:52:03;;;;;;;0.30;0.30;;;;;;;;;;5038193;28;20184;-83
2023/05/15 13:54:30;;;;;;;0.40;0.40;;;;;;;;;;5029233;28;20227;-84
2023/05/15 13:56:56;;;;;;;0.40;0.40;;;;;;;;;;5038652;28;20279;-83
2023/05/15 13:59:22;;;;;;;0.30;0.30;;;;;;;;;;5035508;28;20179;-83
2023/05/15 14:01:48;;;;;;;0.23;0.23;;;;;;;;;;5040827;28;20187;-84
2023/05/15 14:04:14;;;;;;;0.30;0.30;;;;;;;;;;5037392;28;20290;-85
2023/05/15 14:06:40;;;;;;;0.37;0.37;;;;;;;;;;5042698;28;20196;-85
2023/05/15 14:09:07;;;;;;;0.40;0.40;;;;;;;;;;5038679;28;20176;-85
2023/05/15 14:11:33;;;;;;;0.40;0.40;;;;;;;;;;5036932;28;20179;-86
2023/05/15 14:13:59;;;;;;;0.40;0.40;;;;;;;;;;5040211;28;20196;-85
2023/05/15 14:16:25;;;;;;;0.30;0.30;;;;;;;;;;5037318;28;20179;-84
2023/05/15 14:18:51;;;;;;;0.50;0.50;;;;;;;;;;5037719;28;20183;-84
2023/05/15 14:21:17;;;;;;;0.40;0.40;;;;;;;;;;5039035;28;20172;-86
2023/05/15 14:23:43;;;;;;;0.40;0.40;;;;;;;;;;5036957;28;20195;-85
2023/05/15 14:26:09;;;;;;;0.40;0.40;;;;;;;;;;5038834;28;20207;-81
2023/05/15 14:28:35;;;;;;;0.30;0.30;;;;;;;;;;5039267;28;20638;-84
2023/05/15 14:31:01;;;;;;;0.30;0.30;;;;;;;;;;5039121;28;20275;-84
2023/05/15 14:33:27;;;;;;;0.30;0.30;;;;;;;;;;5038762;28;20528;-83
2023/05/15 14:35:53;;;;;;;0.40;0.40;;;;;;;;;;5040622;28;20265;-81
2023/05/15 14:38:19;;;;;;;0.30;0.30;;;;;;;;;;5038786;28;20179;-83
2023/05/15 14:40:45;;;;;;;0.30;0.30;;;;;;;;;;5040815;28;20180;-82